createdAt,value
2022-09-26T00:01:42.610Z,7.28
2022-09-26T00:04:27.909Z,6.43
2022-09-26T00:06:59.091Z,6.32
2022-09-26T00:09:28.381Z,7.30
2022-09-26T00:11:56.251Z,7.10
2022-09-26T00:14:28.045Z,7.47
2022-09-26T00:16:56.192Z,7.15
2022-09-26T00:19:24.633Z,6.80
2022-09-26T00:21:52.469Z,6.53
2022-09-26T00:24:20.625Z,6.75
2022-09-26T00:26:48.418Z,6.93
2022-09-26T00:29:16.735Z,6.40
2022-09-26T00:31:47.564Z,7.20
2022-09-26T00:34:18.484Z,6.47
2022-09-26T00:36:46.383Z,7.70
2022-09-26T00:39:16.346Z,6.50
2022-09-26T00:41:45.423Z,6.87
2022-09-26T00:44:46.320Z,6.82
2022-09-26T00:47:27.154Z,6.25
2022-09-26T00:50:10.712Z,7.25
2022-09-26T00:52:46.866Z,6.18
2022-09-26T00:55:20.279Z,6.18
2022-09-26T00:57:58.963Z,6.72
2022-09-26T01:00:27.400Z,7.22
2022-09-26T01:02:55.450Z,8.95
2022-09-26T01:05:24.567Z,7.67
2022-09-26T01:07:54.709Z,6.30
2022-09-26T01:10:22.898Z,6.60
2022-09-26T01:12:52.441Z,6.47
2022-09-26T01:15:20.863Z,5.73
2022-09-26T01:17:50.259Z,5.82
2022-09-26T01:20:27.210Z,4.88
2022-09-26T01:23:35.221Z,5.38
2022-09-26T01:26:30.503Z,5.03
2022-09-26T01:29:28.612Z,5.57
2022-09-26T01:32:29.562Z,6.05
2022-09-26T01:35:00.032Z,5.60
2022-09-26T01:37:48.844Z,5.78
2022-09-26T01:40:47.246Z,5.80
2022-09-26T01:43:30.833Z,6.60
2022-09-26T01:46:58.181Z,6.43
2022-09-26T01:50:00.880Z,6.40
2022-09-26T01:52:42.969Z,7.38
2022-09-26T01:55:35.957Z,6.00
2022-09-26T01:58:46.126Z,6.93
2022-09-26T02:01:17.021Z,6.75
2022-09-26T02:03:59.459Z,7.23
2022-09-26T02:06:42.589Z,6.45
2022-09-26T02:09:21.881Z,6.53
2022-09-26T02:11:54.135Z,7.30
2022-09-26T02:14:36.560Z,6.90
2022-09-26T02:17:13.217Z,6.63
2022-09-26T02:20:05.347Z,7.32
2022-09-26T02:22:34.940Z,6.65
2022-09-26T02:25:04.484Z,6.27
2022-09-26T02:27:32.916Z,5.70
2022-09-26T02:30:01.007Z,5.78
2022-09-26T02:32:32.589Z,5.00
2022-09-26T02:35:01.340Z,5.47
2022-09-26T02:37:32.391Z,4.27
2022-09-26T02:40:01.184Z,4.72
2022-09-26T02:42:51.880Z,5.03
2022-09-26T02:46:04.348Z,4.70
2022-09-26T02:49:09.539Z,3.97
2022-09-26T02:52:07.785Z,3.58
2022-09-26T02:55:36.699Z,3.63
2022-09-26T02:58:39.539Z,3.90
2022-09-26T03:01:36.180Z,2.93
2022-09-26T03:04:32.564Z,2.75
2022-09-26T03:07:09.615Z,3.08
2022-09-26T03:09:38.758Z,2.77
2022-09-26T03:12:08.026Z,2.40
2022-09-26T03:14:39.194Z,2.40
2022-09-26T03:17:08.772Z,2.30
2022-09-26T03:19:48.362Z,2.60
2022-09-26T03:22:17.071Z,3.43
2022-09-26T03:24:46.122Z,2.30
2022-09-26T03:27:16.389Z,2.40
2022-09-26T03:29:46.083Z,2.50
2022-09-26T03:32:20.101Z,2.70
2022-09-26T03:34:50.268Z,2.03
2022-09-26T03:37:19.008Z,3.35
2022-09-26T03:39:46.919Z,2.30
2022-09-26T03:42:22.994Z,2.30
2022-09-26T03:44:51.994Z,2.33
2022-09-26T03:47:19.737Z,2.38
2022-09-26T03:49:54.701Z,2.83
2022-09-26T03:52:24.981Z,3.50
2022-09-26T03:54:53.492Z,2.63
2022-09-26T03:57:21.740Z,2.75
2022-09-26T03:59:58.226Z,2.77
2022-09-26T04:02:33.528Z,3.08
2022-09-26T04:05:17.480Z,3.10
2022-09-26T04:07:47.192Z,2.88
2022-09-26T04:10:15.091Z,2.80
2022-09-26T04:12:45.549Z,2.80
2022-09-26T04:15:15.273Z,3.30
2022-09-26T04:17:43.320Z,3.50
2022-09-26T04:20:11.429Z,3.00
2022-09-26T04:22:40.936Z,2.50
2022-09-26T04:25:10.220Z,3.10
2022-09-26T04:27:38.926Z,3.13
2022-09-26T04:30:07.514Z,2.95
2022-09-26T04:32:42.624Z,3.17
2022-09-26T04:35:33.021Z,2.30
2022-09-26T04:38:01.123Z,2.93
2022-09-26T04:40:29.501Z,2.53
2022-09-26T04:43:05.081Z,3.53
2022-09-26T04:45:32.862Z,2.53
2022-09-26T04:48:01.368Z,4.03
2022-09-26T04:50:48.062Z,3.20
2022-09-26T04:53:19.362Z,2.90
2022-09-26T04:55:59.653Z,2.55
2022-09-26T04:58:28.364Z,3.17
2022-09-26T05:00:56.596Z,3.10
2022-09-26T05:03:33.226Z,2.70
2022-09-26T05:06:01.589Z,2.50
2022-09-26T05:08:29.352Z,2.67
2022-09-26T05:10:57.718Z,2.40
2022-09-26T05:13:26.992Z,2.33
2022-09-26T05:15:55.915Z,2.90
2022-09-26T05:18:24.595Z,2.47
2022-09-26T05:20:54.211Z,2.90
2022-09-26T05:23:45.010Z,2.80
2022-09-26T05:26:46.288Z,2.70
2022-09-26T05:29:16.162Z,2.80
2022-09-26T05:31:54.805Z,3.00
2022-09-26T05:34:26.155Z,2.37
2022-09-26T05:36:56.169Z,2.43
2022-09-26T05:39:43.392Z,4.07
2022-09-26T05:42:13.791Z,2.63
2022-09-26T05:44:41.636Z,2.17
2022-09-26T05:47:09.917Z,2.20
2022-09-26T05:49:39.730Z,2.00
2022-09-26T05:52:10.178Z,2.47
2022-09-26T05:54:37.969Z,2.03
2022-09-26T05:57:23.337Z,2.10
2022-09-26T05:59:55.899Z,2.40
2022-09-26T06:02:26.263Z,2.40
2022-09-26T06:05:07.860Z,2.95
2022-09-26T06:07:38.424Z,2.67
2022-09-26T06:10:10.833Z,2.72
2022-09-26T06:12:48.790Z,4.07
2022-09-26T06:15:18.640Z,4.83
2022-09-26T06:17:48.254Z,3.80
2022-09-26T06:20:16.607Z,3.07
2022-09-26T06:22:45.057Z,2.70
2022-09-26T06:25:14.379Z,2.65
2022-09-26T06:27:42.708Z,2.90
2022-09-26T06:30:12.033Z,2.10
2022-09-26T06:32:40.964Z,2.40
2022-09-26T06:35:34.632Z,2.85
2022-09-26T06:38:08.727Z,2.85
2022-09-26T06:40:36.947Z,3.00
2022-09-26T06:43:05.460Z,2.28
2022-09-26T06:45:53.342Z,2.40
2022-09-26T06:48:26.128Z,2.20
2022-09-26T06:51:00.589Z,2.63
2022-09-26T06:53:31.946Z,2.83
2022-09-26T06:56:01.431Z,2.30
2022-09-26T06:58:30.945Z,2.50
2022-09-26T07:01:03.019Z,2.33
2022-09-26T07:03:45.730Z,3.35
2022-09-26T07:06:27.137Z,2.35
2022-09-26T07:09:03.175Z,2.67
2022-09-26T07:12:12.991Z,3.28
2022-09-26T07:14:34.582Z,2.42
2022-09-26T07:17:18.332Z,1.90
2022-09-26T07:20:04.623Z,2.38
2022-09-26T07:22:50.578Z,2.38
2022-09-26T07:25:18.506Z,2.83
2022-09-26T07:27:50.903Z,2.13
2022-09-26T07:30:20.224Z,2.17
2022-09-26T07:33:03.986Z,2.28
2022-09-26T07:35:48.925Z,2.22
2022-09-26T07:38:16.788Z,3.15
2022-09-26T07:40:46.208Z,1.90
2022-09-26T07:43:30.605Z,2.50
2022-09-26T07:46:21.018Z,1.95
2022-09-26T07:49:10.355Z,2.58
2022-09-26T07:52:00.322Z,2.40
2022-09-26T07:54:43.651Z,2.78
2022-09-26T07:57:39.757Z,2.60
2022-09-26T08:00:24.266Z,2.60
2022-09-26T08:03:04.936Z,2.10
2022-09-26T08:05:34.969Z,2.30
2022-09-26T08:08:04.976Z,2.30
2022-09-26T08:10:51.666Z,2.55
2022-09-26T08:13:28.982Z,2.70
2022-09-26T08:16:20.700Z,2.42
2022-09-26T08:18:53.404Z,4.60
2022-09-26T08:21:22.411Z,3.50
2022-09-26T08:23:53.652Z,2.30
2022-09-26T08:26:33.026Z,2.15
2022-09-26T08:29:12.642Z,2.47
2022-09-26T08:31:42.653Z,2.45
2022-09-26T08:34:10.592Z,2.40
2022-09-26T08:36:38.462Z,6.47
2022-09-26T08:39:06.317Z,17.83
2022-09-26T08:42:00.527Z,38.67
2022-09-26T08:44:52.953Z,30.00
2022-09-26T08:47:55.792Z,6.18
2022-09-26T08:50:53.744Z,2.20
2022-09-26T08:53:33.270Z,2.35
2022-09-26T08:56:03.840Z,2.30
2022-09-26T08:58:42.946Z,2.10
2022-09-26T09:01:29.071Z,2.15
2022-09-26T09:04:25.216Z,2.00
2022-09-26T09:07:07.490Z,2.08
2022-09-26T09:09:35.296Z,2.28
2022-09-26T09:12:46.985Z,2.08
2022-09-26T09:15:51.263Z,1.88
2022-09-26T09:18:44.459Z,1.52
2022-09-26T09:21:41.630Z,1.48
2022-09-26T09:24:42.175Z,1.63
2022-09-26T09:30:27.295Z,1.75
2022-09-26T09:33:55.701Z,1.40
2022-09-26T09:36:34.602Z,1.63
2022-09-26T09:39:28.102Z,1.50
2022-09-26T09:42:35.060Z,1.67
2022-09-26T09:45:14.399Z,1.65
2022-09-26T09:47:42.324Z,2.25
2022-09-26T09:50:57.203Z,1.58
2022-09-26T09:53:44.825Z,1.55
2022-09-26T09:57:04.120Z,1.30
2022-09-26T10:00:02.299Z,1.90
2022-09-26T10:02:47.177Z,1.55
2022-09-26T10:05:44.393Z,1.33
2022-09-26T10:08:24.897Z,1.73
2022-09-26T10:11:41.628Z,1.33
2022-09-26T10:15:02.375Z,1.83
2022-09-26T10:21:16.320Z,1.20
2022-09-26T10:23:49.410Z,1.50
2022-09-26T10:26:44.815Z,1.42
2022-09-26T10:29:38.360Z,1.38
2022-09-26T10:32:09.604Z,1.52
2022-09-26T10:34:41.003Z,1.33
2022-09-26T10:37:31.006Z,1.40
2022-09-26T10:40:48.522Z,1.38
2022-09-26T10:43:21.597Z,1.20
2022-09-26T10:49:02.224Z,1.15
2022-09-26T10:52:02.913Z,1.35
2022-09-26T10:54:47.646Z,1.20
2022-09-26T10:57:28.300Z,1.00
2022-09-26T11:00:00.499Z,1.38
2022-09-26T11:02:29.603Z,1.10
2022-09-26T11:05:20.858Z,1.27
2022-09-26T11:08:14.334Z,1.30
2022-09-26T11:11:04.259Z,1.27
2022-09-26T11:14:07.445Z,1.60
2022-09-26T11:16:55.113Z,0.95
2022-09-26T11:19:44.625Z,1.13
2022-09-26T11:22:28.804Z,1.38
2022-09-26T11:25:28.186Z,1.10
2022-09-26T11:28:08.837Z,1.27
2022-09-26T11:31:00.314Z,1.10
2022-09-26T11:33:30.426Z,0.98
2022-09-26T11:36:54.304Z,1.20
2022-09-26T11:39:27.971Z,1.05
2022-09-26T11:42:46.331Z,1.75
2022-09-26T11:45:52.674Z,2.55
2022-09-26T11:49:25.590Z,2.60
2022-09-26T11:52:24.564Z,1.00
2022-09-26T11:55:17.892Z,1.10
2022-09-26T11:57:54.721Z,1.20
2022-09-26T12:00:46.658Z,1.10
2022-09-26T12:03:37.222Z,0.90
2022-09-26T12:06:18.159Z,0.80
2022-09-26T12:09:22.160Z,1.08
2022-09-26T12:12:06.032Z,0.85
2022-09-26T12:14:57.945Z,1.10
2022-09-26T12:18:13.224Z,0.90
2022-09-26T12:21:24.625Z,1.08
2022-09-26T12:24:22.543Z,1.10
2022-09-26T12:27:06.732Z,0.75
2022-09-26T12:30:02.476Z,1.10
2022-09-26T12:33:36.053Z,0.90
2022-09-26T12:36:31.583Z,1.10
2022-09-26T12:39:39.180Z,1.00
2022-09-26T12:43:04.444Z,1.20
2022-09-26T12:46:06.241Z,1.42
2022-09-26T12:48:45.990Z,1.05
2022-09-26T12:51:43.100Z,1.08
2022-09-26T12:54:29.480Z,1.05
2022-09-26T12:57:42.357Z,0.85
2022-09-26T13:00:20.841Z,0.85
2022-09-26T13:03:12.827Z,1.20
2022-09-26T13:06:08.864Z,1.08
2022-09-26T13:08:45.382Z,0.90
2022-09-26T13:11:33.988Z,1.10
2022-09-26T13:14:27.493Z,1.08
2022-09-26T13:17:28.949Z,1.10
2022-09-26T13:20:22.710Z,1.30
2022-09-26T13:23:07.852Z,1.00
2022-09-26T13:25:49.369Z,1.30
2022-09-26T13:28:34.067Z,1.30
2022-09-26T13:31:19.058Z,1.10
2022-09-26T13:34:09.390Z,0.95
2022-09-26T13:36:38.806Z,1.00
2022-09-26T13:39:15.293Z,0.95
2022-09-26T13:41:59.792Z,0.90
2022-09-26T13:44:46.812Z,1.00
2022-09-26T13:47:49.566Z,1.00
2022-09-26T13:50:47.329Z,1.00
2022-09-26T13:53:40.363Z,0.80
2022-09-26T13:56:44.143Z,0.80
2022-09-26T13:59:15.664Z,1.10
2022-09-26T14:02:24.709Z,1.17
2022-09-26T14:05:02.853Z,1.35
2022-09-26T14:08:00.984Z,1.33
2022-09-26T14:10:37.510Z,1.05
2022-09-26T14:13:37.102Z,0.90
2022-09-26T14:16:28.819Z,0.80
2022-09-26T14:19:29.177Z,0.80
2022-09-26T14:22:26.305Z,1.17
2022-09-26T14:24:57.199Z,1.05
2022-09-26T14:27:36.216Z,0.90
2022-09-26T14:30:30.500Z,1.05
2022-09-26T14:33:06.974Z,0.90
2022-09-26T14:35:38.593Z,1.20
2022-09-26T14:38:20.522Z,0.95
2022-09-26T14:40:58.202Z,1.38
2022-09-26T14:43:30.316Z,1.25
2022-09-26T14:46:23.438Z,1.00
2022-09-26T14:49:05.439Z,1.10
2022-09-26T14:51:41.244Z,1.08
2022-09-26T14:54:26.725Z,0.93
2022-09-26T14:57:05.518Z,1.52
2022-09-26T14:59:36.185Z,1.05
2022-09-26T15:02:38.357Z,1.02
2022-09-26T15:05:22.800Z,0.70
2022-09-26T15:07:53.947Z,1.17
2022-09-26T15:10:26.454Z,1.95
2022-09-26T15:13:17.470Z,1.30
2022-09-26T15:15:57.704Z,0.93
2022-09-26T15:18:34.882Z,1.50
2022-09-26T15:21:32.988Z,1.48
2022-09-26T15:24:04.928Z,1.30
2022-09-26T15:26:37.159Z,1.55
2022-09-26T15:29:06.963Z,1.65
2022-09-26T15:31:46.130Z,2.30
2022-09-26T15:34:43.574Z,3.03
2022-09-26T15:37:22.069Z,2.00
2022-09-26T15:39:50.992Z,2.13
2022-09-26T15:42:40.995Z,1.95
2022-09-26T15:45:27.864Z,1.85
2022-09-26T15:48:00.465Z,1.20
2022-09-26T15:50:43.531Z,1.45
2022-09-26T15:53:36.660Z,1.20
2022-09-26T15:56:21.297Z,1.52
2022-09-26T15:59:01.173Z,1.40
2022-09-26T16:01:31.265Z,2.53
2022-09-26T16:04:02.926Z,1.73
2022-09-26T16:06:35.869Z,2.47
2022-09-26T16:09:25.707Z,1.83
2022-09-26T16:11:56.725Z,3.97
2022-09-26T16:14:42.161Z,2.75
2022-09-26T16:17:26.206Z,1.65
2022-09-26T16:22:39.242Z,1.33
2022-09-26T16:25:19.027Z,1.30
2022-09-26T16:27:58.251Z,1.45
2022-09-26T16:30:27.139Z,1.50
2022-09-26T16:33:32.138Z,1.05
2022-09-26T16:36:17.282Z,1.35
2022-09-26T16:39:04.113Z,1.90
2022-09-26T16:44:41.159Z,1.20
2022-09-26T16:47:43.351Z,1.30
2022-09-26T16:50:33.583Z,1.30
2022-09-26T16:53:06.844Z,1.30
2022-09-26T16:55:36.772Z,1.20
2022-09-26T16:58:06.045Z,1.00
2022-09-26T17:00:54.135Z,1.80
2022-09-26T17:03:32.637Z,1.77
2022-09-26T17:06:00.772Z,1.42
2022-09-26T17:08:29.188Z,1.35
2022-09-26T17:11:02.571Z,1.17
2022-09-26T17:13:33.957Z,1.27
2022-09-26T17:16:03.696Z,1.48
2022-09-26T17:18:33.486Z,1.35
2022-09-26T17:21:02.229Z,1.13
2022-09-26T17:23:40.558Z,1.50
2022-09-26T17:26:23.736Z,1.30
2022-09-26T17:28:53.368Z,1.27
2022-09-26T17:31:21.395Z,1.33
2022-09-26T17:33:53.071Z,1.55
2022-09-26T17:36:29.476Z,1.67
2022-09-26T17:38:59.646Z,1.65
2022-09-26T17:41:29.011Z,1.40
2022-09-26T17:44:00.881Z,1.75
2022-09-26T17:46:29.671Z,1.58
2022-09-26T17:48:59.397Z,1.95
2022-09-26T17:51:27.248Z,1.98
2022-09-26T17:53:57.553Z,1.55
2022-09-26T17:56:26.435Z,7.32
2022-09-26T17:58:54.321Z,3.47
2022-09-26T18:01:24.492Z,2.92
2022-09-26T18:03:57.154Z,1.65
2022-09-26T18:06:31.803Z,1.98
2022-09-26T18:09:07.563Z,1.90
2022-09-26T18:11:36.542Z,2.17
2022-09-26T18:14:06.928Z,3.55
2022-09-26T18:16:35.326Z,4.75
2022-09-26T18:19:07.494Z,4.80
2022-09-26T18:21:36.038Z,12.65
2022-09-26T18:24:07.014Z,7.35
2022-09-26T18:26:47.276Z,7.65
2022-09-26T18:29:30.072Z,2.95
2022-09-26T18:31:59.834Z,3.53
2022-09-26T18:34:27.843Z,2.05
2022-09-26T18:37:00.858Z,1.70
2022-09-26T18:39:30.667Z,6.03
2022-09-26T18:42:09.278Z,1.90
2022-09-26T18:44:37.344Z,1.85
2022-09-26T18:47:14.034Z,7.50
2022-09-26T18:49:44.134Z,4.05
2022-09-26T18:52:17.970Z,16.05
2022-09-26T18:55:06.621Z,4.07
2022-09-26T18:57:53.235Z,4.25
2022-09-26T19:00:21.139Z,4.05
2022-09-26T19:02:50.365Z,6.05
2022-09-26T19:05:18.372Z,4.20
2022-09-26T19:07:46.584Z,6.53
2022-09-26T19:10:24.972Z,5.90
2022-09-26T19:12:52.711Z,4.65
2022-09-26T19:15:20.445Z,4.53
2022-09-26T19:17:50.023Z,4.35
2022-09-26T19:20:17.843Z,1.90
2022-09-26T19:22:45.581Z,1.60
2022-09-26T19:25:13.755Z,2.47
2022-09-26T19:27:52.065Z,1.73
2022-09-26T19:30:22.038Z,1.88
2022-09-26T19:32:52.978Z,1.48
2022-09-26T19:35:30.491Z,1.52
2022-09-26T19:38:00.363Z,1.60
2022-09-26T19:40:28.571Z,1.55
2022-09-26T19:42:57.332Z,2.08
2022-09-26T19:45:26.288Z,1.85
2022-09-26T19:47:56.131Z,1.45
2022-09-26T19:50:26.284Z,2.10
2022-09-26T19:52:56.793Z,1.30
2022-09-26T19:55:28.133Z,1.52
2022-09-26T19:58:15.228Z,1.60
2022-09-26T20:00:44.828Z,1.92
2022-09-26T20:03:28.957Z,1.67
2022-09-26T20:08:26.936Z,2.15
2022-09-26T20:10:58.058Z,1.92
2022-09-26T20:13:25.822Z,1.70
2022-09-26T20:15:54.630Z,1.63
2022-09-26T20:18:24.146Z,1.55
2022-09-26T20:20:56.889Z,1.30
2022-09-26T20:23:27.091Z,1.40
2022-09-26T20:25:55.939Z,1.80
2022-09-26T20:28:23.696Z,1.80
2022-09-26T20:30:51.495Z,1.80
2022-09-26T20:33:22.389Z,2.60
2022-09-26T20:36:02.607Z,2.00
2022-09-26T20:38:42.374Z,2.17
2022-09-26T20:41:34.928Z,1.50
2022-09-26T20:44:07.051Z,1.60
2022-09-26T20:46:39.467Z,1.90
2022-09-26T20:49:14.932Z,1.35
2022-09-26T20:51:44.466Z,1.63
2022-09-26T20:54:28.818Z,1.30
2022-09-26T20:56:57.992Z,1.75
2022-09-26T20:59:27.152Z,1.20
2022-09-26T21:01:57.043Z,1.45
2022-09-26T21:04:32.629Z,1.40
2022-09-26T21:07:00.444Z,1.30
2022-09-26T21:09:28.198Z,1.58
2022-09-26T21:11:55.919Z,1.27
2022-09-26T21:14:23.859Z,1.13
2022-09-26T21:16:52.547Z,1.15
2022-09-26T21:19:24.291Z,1.33
2022-09-26T21:22:02.847Z,0.88
2022-09-26T21:24:49.160Z,1.08
2022-09-26T21:27:17.143Z,1.17
2022-09-26T21:29:44.908Z,1.15
2022-09-26T21:32:21.048Z,1.45
2022-09-26T21:34:59.800Z,1.00
2022-09-26T21:37:27.887Z,0.80
2022-09-26T21:39:55.777Z,0.75
2022-09-26T21:42:26.237Z,1.95
2022-09-26T21:45:05.607Z,0.70
2022-09-26T21:47:36.483Z,0.80
2022-09-26T21:50:06.784Z,0.70
2022-09-26T21:53:02.693Z,0.80
2022-09-26T21:55:38.760Z,0.70
2022-09-26T21:58:15.397Z,0.60
2022-09-26T22:00:43.204Z,0.55
2022-09-26T22:03:10.986Z,0.50
2022-09-26T22:05:39.077Z,0.80
2022-09-26T22:08:06.901Z,0.88
2022-09-26T22:10:37.000Z,0.68
2022-09-26T22:13:05.337Z,0.90
2022-09-26T22:15:33.358Z,0.90
2022-09-26T22:18:01.262Z,0.60
2022-09-26T22:20:29.221Z,0.90
2022-09-26T22:22:56.986Z,0.55
2022-09-26T22:25:25.825Z,0.60
2022-09-26T22:27:53.743Z,0.60
2022-09-26T22:30:21.562Z,0.80
2022-09-26T22:32:49.338Z,0.68
2022-09-26T22:35:17.299Z,0.68
2022-09-26T22:37:45.338Z,0.75
2022-09-26T22:40:13.154Z,0.63
2022-09-26T22:42:41.007Z,0.60
2022-09-26T22:45:09.639Z,0.85
2022-09-26T22:47:38.233Z,0.73
2022-09-26T22:50:06.408Z,0.50
2022-09-26T22:52:34.300Z,0.70
2022-09-26T22:55:02.240Z,0.95
2022-09-26T22:57:31.503Z,0.40
2022-09-26T22:59:59.312Z,0.65
2022-09-26T23:02:27.056Z,0.60
2022-09-26T23:04:54.787Z,0.60
2022-09-26T23:07:22.568Z,0.60
2022-09-26T23:09:50.403Z,0.70
2022-09-26T23:12:19.074Z,0.52
2022-09-26T23:14:46.867Z,0.43
2022-09-26T23:17:14.959Z,0.52
2022-09-26T23:19:42.840Z,1.00
2022-09-26T23:22:10.585Z,0.57
2022-09-26T23:24:38.358Z,0.82
2022-09-26T23:27:06.250Z,0.60
2022-09-26T23:29:34.209Z,0.75
2022-09-26T23:32:02.060Z,0.65
2022-09-26T23:34:29.867Z,0.90
2022-09-26T23:36:57.702Z,0.60
2022-09-26T23:39:25.472Z,0.70
2022-09-26T23:41:53.206Z,0.80
2022-09-26T23:44:20.968Z,0.95
2022-09-26T23:46:48.720Z,0.75
2022-09-26T23:49:17.627Z,1.00
2022-09-26T23:51:47.605Z,0.70
2022-09-26T23:54:15.450Z,0.73
2022-09-26T23:56:43.183Z,0.55
2022-09-26T23:59:10.937Z,0.77
